createdAt,value
2022-12-25T00:00:51.787Z,18.67
2022-12-25T00:03:56.810Z,18.42
2022-12-25T00:06:59.769Z,16.17
2022-12-25T00:10:02.406Z,16.77
2022-12-25T00:13:04.873Z,20.88
2022-12-25T00:16:09.111Z,23.83
2022-12-25T00:19:12.756Z,20.58
2022-12-25T00:22:15.201Z,20.45
2022-12-25T00:25:17.650Z,16.60
2022-12-25T00:28:20.966Z,22.60
2022-12-25T00:31:24.918Z,19.33
2022-12-25T00:34:27.541Z,18.95
2022-12-25T00:37:30.100Z,19.70
2022-12-25T00:40:32.530Z,18.40
2022-12-25T00:43:36.269Z,18.70
2022-12-25T00:46:38.870Z,13.88
2022-12-25T00:49:41.509Z,15.35
2022-12-25T00:52:44.349Z,12.60
2022-12-25T00:55:55.069Z,14.48
2022-12-25T00:58:57.546Z,21.83
2022-12-25T01:02:20.160Z,15.05
2022-12-25T01:05:22.655Z,10.10
2022-12-25T01:08:26.132Z,13.03
2022-12-25T01:11:28.810Z,14.07
2022-12-25T01:14:31.189Z,10.45
2022-12-25T01:17:34.027Z,10.80
2022-12-25T01:20:36.420Z,8.02
2022-12-25T01:23:38.935Z,9.05
2022-12-25T01:26:41.304Z,9.07
2022-12-25T01:29:45.246Z,8.50
2022-12-25T01:32:47.570Z,7.97
2022-12-25T01:35:49.953Z,8.90
2022-12-25T01:38:54.112Z,9.13
2022-12-25T01:41:56.863Z,9.05
2022-12-25T01:45:32.317Z,8.35
2022-12-25T01:48:39.092Z,9.68
2022-12-25T01:51:47.520Z,8.07
2022-12-25T01:54:55.824Z,6.78
2022-12-25T01:57:58.523Z,6.70
2022-12-25T02:01:01.065Z,8.20
2022-12-25T02:04:16.493Z,8.95
2022-12-25T02:07:22.204Z,8.35
2022-12-25T02:10:25.060Z,14.27
2022-12-25T02:13:27.522Z,14.70
2022-12-25T02:16:35.553Z,14.93
2022-12-25T02:20:16.480Z,16.75
2022-12-25T02:23:21.546Z,16.95
2022-12-25T02:26:39.194Z,15.80
2022-12-25T02:29:53.498Z,13.43
2022-12-25T02:33:21.356Z,14.00
2022-12-25T02:36:29.502Z,14.77
2022-12-25T02:40:00.546Z,14.50
2022-12-25T02:43:25.477Z,13.60
2022-12-25T02:46:49.892Z,13.70
2022-12-25T02:50:12.697Z,12.60
2022-12-25T02:53:33.581Z,11.65
2022-12-25T02:56:56.260Z,11.30
2022-12-25T03:00:20.079Z,11.23
2022-12-25T03:03:44.397Z,10.25
2022-12-25T03:07:09.922Z,10.47
2022-12-25T03:10:33.658Z,13.68
2022-12-25T03:13:40.103Z,14.45
2022-12-25T03:16:50.822Z,16.40
2022-12-25T03:20:12.144Z,19.67
2022-12-25T03:23:36.784Z,19.02
2022-12-25T03:26:57.888Z,18.42
2022-12-25T03:30:19.360Z,17.70
2022-12-25T03:33:44.890Z,16.85
2022-12-25T03:37:24.972Z,14.90
2022-12-25T03:41:14.678Z,15.53
2022-12-25T03:44:38.452Z,15.00
2022-12-25T03:48:05.840Z,14.85
2022-12-25T03:51:31.487Z,16.00
2022-12-25T03:54:55.594Z,14.93
2022-12-25T03:58:16.257Z,18.20
2022-12-25T04:01:37.413Z,16.38
2022-12-25T04:04:58.109Z,16.27
2022-12-25T04:08:18.890Z,16.08
2022-12-25T04:11:39.476Z,13.65
2022-12-25T04:15:00.049Z,12.13
2022-12-25T04:18:20.676Z,11.10
2022-12-25T04:21:42.361Z,9.52
2022-12-25T04:25:03.207Z,10.13
2022-12-25T04:28:24.539Z,7.82
2022-12-25T04:31:45.853Z,16.10
2022-12-25T04:35:06.733Z,14.82
2022-12-25T04:38:09.146Z,13.15
2022-12-25T04:41:13.510Z,11.68
2022-12-25T04:44:15.927Z,10.10
2022-12-25T04:47:18.334Z,9.77
2022-12-25T04:50:20.688Z,11.80
2022-12-25T04:53:23.392Z,14.88
2022-12-25T04:56:25.749Z,15.60
2022-12-25T04:59:28.297Z,13.10
2022-12-25T05:02:31.564Z,15.32
2022-12-25T05:05:34.061Z,14.60
2022-12-25T05:08:37.394Z,13.85
2022-12-25T05:11:39.796Z,11.25
2022-12-25T05:14:42.293Z,7.75
2022-12-25T05:17:44.625Z,6.50
2022-12-25T05:20:54.193Z,5.90
2022-12-25T05:23:56.601Z,5.75
2022-12-25T05:26:58.918Z,4.53
2022-12-25T05:30:01.364Z,4.57
2022-12-25T05:33:03.866Z,4.78
2022-12-25T05:36:08.734Z,6.57
2022-12-25T05:39:11.086Z,5.93
2022-12-25T05:42:13.499Z,6.80
2022-12-25T05:45:15.870Z,5.93
2022-12-25T05:48:18.438Z,5.13
2022-12-25T05:51:20.877Z,5.43
2022-12-25T05:54:23.292Z,4.80
2022-12-25T05:57:28.633Z,5.23
2022-12-25T06:00:31.086Z,4.90
2022-12-25T06:03:33.484Z,5.13
2022-12-25T06:06:35.905Z,5.20
2022-12-25T06:09:38.325Z,5.30
2022-12-25T06:12:40.761Z,5.35
2022-12-25T06:15:43.146Z,5.97
2022-12-25T06:18:48.405Z,5.73
2022-12-25T06:21:54.542Z,5.57
2022-12-25T06:24:57.104Z,6.20
2022-12-25T06:27:59.458Z,9.67
2022-12-25T06:31:22.392Z,9.20
2022-12-25T06:34:25.026Z,17.75
2022-12-25T06:37:27.384Z,18.40
2022-12-25T06:40:29.937Z,19.02
2022-12-25T06:43:32.264Z,42.22
2022-12-25T06:46:34.805Z,32.53
2022-12-25T06:49:37.235Z,20.70
2022-12-25T06:52:39.643Z,23.80
2022-12-25T06:55:41.998Z,25.92
2022-12-25T06:58:45.901Z,23.93
2022-12-25T07:01:50.747Z,25.92
2022-12-25T07:04:53.924Z,23.13
2022-12-25T07:07:56.280Z,16.67
2022-12-25T07:10:58.650Z,9.85
2022-12-25T07:14:01.043Z,12.70
2022-12-25T07:17:03.419Z,17.02
2022-12-25T07:20:07.053Z,17.70
2022-12-25T07:23:09.477Z,18.65
2022-12-25T07:26:13.221Z,20.17
2022-12-25T07:29:16.252Z,8.63
2022-12-25T07:32:18.649Z,6.30
2022-12-25T07:35:20.957Z,5.50
2022-12-25T07:38:23.432Z,5.20
2022-12-25T07:41:26.048Z,5.65
2022-12-25T07:44:40.181Z,7.38
2022-12-25T07:47:43.385Z,7.15
2022-12-25T07:50:45.753Z,6.13
2022-12-25T07:53:48.140Z,10.27
2022-12-25T07:56:52.383Z,13.82
2022-12-25T07:59:54.781Z,21.53
2022-12-25T08:02:57.252Z,36.97
2022-12-25T08:06:01.816Z,36.95
2022-12-25T08:09:09.778Z,33.65
2022-12-25T08:12:12.212Z,28.25
2022-12-25T08:15:14.676Z,31.38
2022-12-25T08:18:17.025Z,30.77
2022-12-25T08:21:19.530Z,22.33
2022-12-25T08:24:22.620Z,22.35
2022-12-25T08:27:25.012Z,21.65
2022-12-25T08:30:28.344Z,21.27
2022-12-25T08:33:30.900Z,15.43
2022-12-25T08:36:33.313Z,12.93
2022-12-25T08:39:35.869Z,11.90
2022-12-25T08:42:38.345Z,12.20
2022-12-25T08:45:40.833Z,11.35
2022-12-25T08:48:45.514Z,14.27
2022-12-25T08:51:47.976Z,13.40
2022-12-25T08:54:50.836Z,15.90
2022-12-25T08:57:54.278Z,13.98
2022-12-25T09:00:56.964Z,14.53
2022-12-25T09:03:59.432Z,15.73
2022-12-25T09:07:02.707Z,22.73
2022-12-25T09:10:05.636Z,20.70
2022-12-25T09:13:08.481Z,25.35
2022-12-25T09:16:14.861Z,24.67
2022-12-25T09:19:17.395Z,22.85
2022-12-25T09:22:19.805Z,22.27
2022-12-25T09:25:22.335Z,22.58
2022-12-25T09:28:24.968Z,23.13
2022-12-25T09:31:27.468Z,28.17
2022-12-25T09:34:29.936Z,20.70
2022-12-25T09:37:32.307Z,24.42
2022-12-25T09:40:35.198Z,12.43
2022-12-25T09:43:42.350Z,8.50
2022-12-25T09:46:52.993Z,9.15
2022-12-25T09:50:08.038Z,8.95
2022-12-25T09:53:18.534Z,7.63
2022-12-25T09:56:25.965Z,8.23
2022-12-25T09:59:28.436Z,8.70
2022-12-25T10:03:01.900Z,11.40
2022-12-25T10:06:18.123Z,11.05
2022-12-25T10:09:33.519Z,10.63
2022-12-25T10:13:03.067Z,11.95
2022-12-25T10:16:20.348Z,11.10
2022-12-25T10:19:37.078Z,13.32
2022-12-25T10:22:46.592Z,10.55
2022-12-25T10:25:49.068Z,9.50
2022-12-25T10:29:01.179Z,9.02
2022-12-25T10:32:04.214Z,7.72
2022-12-25T10:35:10.793Z,6.47
2022-12-25T10:38:15.936Z,9.80
2022-12-25T10:41:32.325Z,13.02
2022-12-25T10:44:34.919Z,12.10
2022-12-25T10:47:42.697Z,10.30
2022-12-25T10:50:45.269Z,12.50
2022-12-25T10:53:47.674Z,12.13
2022-12-25T10:57:09.569Z,13.33
2022-12-25T11:00:23.962Z,14.50
2022-12-25T11:03:35.312Z,12.40
2022-12-25T11:06:37.866Z,18.20
2022-12-25T11:09:40.524Z,20.58
2022-12-25T11:12:45.524Z,18.95
2022-12-25T11:15:49.481Z,18.73
2022-12-25T11:18:54.383Z,18.23
2022-12-25T11:21:59.685Z,16.58
2022-12-25T11:25:13.617Z,15.23
2022-12-25T11:28:16.028Z,15.93
2022-12-25T11:31:22.086Z,16.90
2022-12-25T11:34:45.188Z,18.00
2022-12-25T11:37:53.806Z,16.67
2022-12-25T11:41:00.253Z,20.10
2022-12-25T11:44:11.596Z,20.67
2022-12-25T11:47:21.634Z,24.27
2022-12-25T11:50:37.829Z,22.33
2022-12-25T11:53:47.366Z,17.27
2022-12-25T11:56:50.331Z,15.85
2022-12-25T12:00:00.268Z,16.87
2022-12-25T12:03:28.170Z,18.60
2022-12-25T12:06:40.105Z,17.20
2022-12-25T12:09:48.536Z,17.87
2022-12-25T12:13:16.979Z,17.33
2022-12-25T12:16:19.456Z,16.83
2022-12-25T12:19:28.216Z,16.23
2022-12-25T12:22:30.612Z,16.90
2022-12-25T12:25:40.138Z,14.18
2022-12-25T12:28:46.813Z,14.10
2022-12-25T12:31:51.569Z,16.20
2022-12-25T12:34:54.917Z,14.63
2022-12-25T12:38:14.920Z,14.60
2022-12-25T12:41:18.223Z,17.60
2022-12-25T12:44:25.040Z,15.73
2022-12-25T12:47:48.524Z,15.85
2022-12-25T12:51:02.997Z,21.50
2022-12-25T12:54:23.686Z,23.05
2022-12-25T12:57:29.813Z,27.52
2022-12-25T13:00:46.787Z,19.88
2022-12-25T13:04:10.765Z,16.77
2022-12-25T13:07:43.983Z,21.65
2022-12-25T13:11:19.417Z,21.95
2022-12-25T13:14:23.916Z,16.13
2022-12-25T13:17:28.346Z,13.60
2022-12-25T13:20:55.409Z,16.02
2022-12-25T13:24:00.851Z,15.98
2022-12-25T13:27:24.738Z,16.80
2022-12-25T13:30:28.013Z,17.15
2022-12-25T13:33:30.585Z,14.15
2022-12-25T13:36:38.493Z,13.93
2022-12-25T13:40:02.001Z,14.95
2022-12-25T13:43:05.063Z,15.25
2022-12-25T13:46:07.524Z,16.83
2022-12-25T13:49:21.709Z,14.40
2022-12-25T13:52:24.287Z,12.18
2022-12-25T13:55:28.919Z,11.88
2022-12-25T13:58:34.982Z,31.95
2022-12-25T14:01:43.121Z,33.30
2022-12-25T14:04:45.737Z,28.58
2022-12-25T14:07:53.549Z,21.00
2022-12-25T14:10:57.063Z,13.63
2022-12-25T14:14:04.066Z,13.63
2022-12-25T14:17:06.552Z,16.07
2022-12-25T14:20:24.248Z,14.00
2022-12-25T14:23:27.569Z,31.95
2022-12-25T14:26:33.498Z,39.58
2022-12-25T14:29:44.196Z,37.05
2022-12-25T14:32:52.779Z,38.63
2022-12-25T14:35:56.519Z,35.70
2022-12-25T14:39:07.443Z,33.53
2022-12-25T14:42:20.428Z,37.55
2022-12-25T14:45:38.527Z,37.72
2022-12-25T14:48:41.209Z,34.40
2022-12-25T14:51:43.688Z,31.60
2022-12-25T14:54:51.835Z,33.03
2022-12-25T14:58:07.741Z,31.48
2022-12-25T15:01:21.239Z,19.20
2022-12-25T15:04:24.988Z,17.67
2022-12-25T15:07:31.518Z,16.58
2022-12-25T15:13:58.383Z,12.15
2022-12-25T15:17:01.713Z,11.85
2022-12-25T15:20:05.434Z,14.73
2022-12-25T15:23:20.996Z,15.25
2022-12-25T15:26:25.025Z,14.75
2022-12-25T15:30:07.381Z,12.45
2022-12-25T15:32:50.408Z,13.70
2022-12-25T15:35:52.837Z,13.82
2022-12-25T15:38:55.798Z,16.23
2022-12-25T15:42:12.025Z,17.90
2022-12-25T15:45:22.045Z,20.35
2022-12-25T15:48:24.433Z,14.00
2022-12-25T15:51:26.840Z,16.43
2022-12-25T15:54:30.103Z,14.75
2022-12-25T15:57:33.358Z,15.20
2022-12-25T16:00:35.912Z,13.27
2022-12-25T16:03:38.401Z,18.45
2022-12-25T16:06:41.069Z,18.20
2022-12-25T16:09:43.964Z,20.90
2022-12-25T16:12:46.954Z,18.03
2022-12-25T16:15:49.401Z,18.40
2022-12-25T16:18:51.776Z,13.23
2022-12-25T16:21:54.213Z,23.10
2022-12-25T16:24:57.777Z,26.50
2022-12-25T16:28:00.181Z,26.23
2022-12-25T16:31:02.589Z,20.58
2022-12-25T16:34:06.656Z,19.92
2022-12-25T16:37:09.034Z,17.83
2022-12-25T16:40:11.642Z,70.90
2022-12-25T16:43:20.308Z,33.50
2022-12-25T16:46:26.133Z,46.17
2022-12-25T16:49:28.517Z,40.60
2022-12-25T16:52:33.102Z,30.93
2022-12-25T16:55:37.715Z,30.73
2022-12-25T16:58:41.226Z,24.55
2022-12-25T17:01:43.796Z,24.05
2022-12-25T17:04:47.282Z,43.42
2022-12-25T17:07:49.750Z,25.85
2022-12-25T17:10:52.186Z,21.30
2022-12-25T17:13:55.405Z,20.03
2022-12-25T17:16:57.869Z,17.70
2022-12-25T17:20:00.403Z,19.35
2022-12-25T17:23:02.737Z,13.23
2022-12-25T17:26:06.340Z,15.63
2022-12-25T17:29:08.785Z,14.85
2022-12-25T17:32:12.646Z,16.35
2022-12-25T17:35:15.083Z,11.55
2022-12-25T17:38:17.509Z,9.45
2022-12-25T17:41:20.819Z,11.60
2022-12-25T17:44:23.548Z,12.80
2022-12-25T17:47:26.281Z,9.05
2022-12-25T17:50:28.828Z,10.63
2022-12-25T17:53:31.471Z,12.60
2022-12-25T17:56:34.083Z,12.65
2022-12-25T17:59:36.820Z,14.90
2022-12-25T18:02:40.101Z,15.57
2022-12-25T18:05:42.728Z,13.85
2022-12-25T18:08:46.508Z,14.57
2022-12-25T18:11:48.930Z,13.00
2022-12-25T18:14:51.466Z,13.00
2022-12-25T18:17:53.793Z,10.35
2022-12-25T18:20:56.152Z,14.93
2022-12-25T18:23:58.582Z,16.53
2022-12-25T18:27:00.969Z,15.40
2022-12-25T18:30:04.198Z,15.88
2022-12-25T18:33:06.733Z,14.18
2022-12-25T18:36:11.935Z,16.92
2022-12-25T18:39:14.620Z,16.92
2022-12-25T18:42:35.219Z,18.52
2022-12-25T18:45:37.852Z,18.40
2022-12-25T18:48:41.164Z,17.10
2022-12-25T18:51:43.693Z,15.25
2022-12-25T18:54:46.132Z,19.73
2022-12-25T18:57:49.480Z,23.77
2022-12-25T19:00:52.807Z,22.73
2022-12-25T19:04:02.074Z,19.05
2022-12-25T19:07:07.302Z,18.38
2022-12-25T19:10:10.494Z,16.95
2022-12-25T19:13:12.986Z,17.40
2022-12-25T19:16:15.922Z,20.40
2022-12-25T19:19:21.539Z,16.65
2022-12-25T19:22:24.233Z,13.50
2022-12-25T19:25:27.796Z,13.20
2022-12-25T19:28:30.382Z,13.77
2022-12-25T19:31:33.065Z,13.90
2022-12-25T19:34:35.807Z,11.85
2022-12-25T19:37:38.339Z,16.33
2022-12-25T19:40:40.848Z,16.27
2022-12-25T19:43:47.435Z,12.45
2022-12-25T19:46:50.074Z,12.80
2022-12-25T19:49:53.329Z,11.75
2022-12-25T19:52:56.530Z,9.77
2022-12-25T19:56:02.109Z,13.47
2022-12-25T19:59:04.572Z,13.38
2022-12-25T20:02:07.180Z,12.05
2022-12-25T20:05:09.796Z,12.05
2022-12-25T20:08:12.215Z,13.63
2022-12-25T20:11:19.537Z,15.30
2022-12-25T20:14:22.229Z,12.23
2022-12-25T20:17:24.793Z,7.70
2022-12-25T20:20:27.151Z,10.32
2022-12-25T20:23:29.947Z,9.15
2022-12-25T20:26:32.424Z,9.43
2022-12-25T20:29:41.597Z,10.90
2022-12-25T20:32:50.122Z,10.68
2022-12-25T20:35:53.067Z,12.57
2022-12-25T20:38:55.477Z,11.20
2022-12-25T20:41:57.858Z,11.95
2022-12-25T20:45:00.435Z,11.48
2022-12-25T20:48:05.100Z,11.03
2022-12-25T20:51:14.345Z,9.55
2022-12-25T20:54:16.684Z,12.60
2022-12-25T20:57:19.266Z,13.60
2022-12-25T21:00:22.953Z,12.07
2022-12-25T21:03:25.512Z,12.75
2022-12-25T21:06:28.022Z,12.02
2022-12-25T21:09:30.677Z,12.50
2022-12-25T21:12:33.080Z,10.65
2022-12-25T21:15:35.437Z,12.18
2022-12-25T21:18:38.171Z,13.03
2022-12-25T21:21:43.077Z,12.88
2022-12-25T21:24:45.443Z,12.00
2022-12-25T21:27:47.842Z,11.47
2022-12-25T21:30:50.224Z,12.10
2022-12-25T21:33:54.395Z,12.60
2022-12-25T21:36:56.929Z,12.25
2022-12-25T21:39:59.881Z,9.57
2022-12-25T21:43:02.358Z,11.48
2022-12-25T21:46:10.171Z,10.70
2022-12-25T21:49:12.624Z,10.60
2022-12-25T21:52:14.951Z,9.15
2022-12-25T21:55:17.337Z,11.25
2022-12-25T21:58:19.704Z,11.57
2022-12-25T22:01:22.192Z,9.57
2022-12-25T22:04:25.066Z,9.63
2022-12-25T22:07:27.532Z,12.68
2022-12-25T22:10:31.101Z,15.60
2022-12-25T22:13:51.964Z,17.10
2022-12-25T22:17:12.549Z,12.80
2022-12-25T22:20:18.230Z,15.40
2022-12-25T22:23:20.630Z,16.27
2022-12-25T22:26:22.970Z,17.42
2022-12-25T22:29:25.766Z,18.00
2022-12-25T22:32:28.843Z,18.75
2022-12-25T22:35:31.267Z,16.08
2022-12-25T22:38:34.342Z,19.98
2022-12-25T22:41:36.723Z,14.27
2022-12-25T22:44:39.228Z,14.13
2022-12-25T22:47:41.958Z,12.88
2022-12-25T22:50:44.401Z,12.37
2022-12-25T22:53:46.731Z,12.95
2022-12-25T22:56:51.373Z,12.05
2022-12-25T22:59:53.874Z,13.50
2022-12-25T23:02:56.413Z,13.68
2022-12-25T23:05:58.898Z,12.80
2022-12-25T23:09:01.391Z,13.77
2022-12-25T23:12:04.238Z,13.85
2022-12-25T23:15:07.132Z,14.95
2022-12-25T23:18:28.352Z,14.52
2022-12-25T23:21:49.557Z,15.10
2022-12-25T23:25:10.093Z,12.82
2022-12-25T23:28:12.443Z,15.70
2022-12-25T23:31:22.586Z,15.07
2022-12-25T23:34:24.999Z,13.82
2022-12-25T23:37:27.347Z,14.98
2022-12-25T23:40:33.625Z,13.15
2022-12-25T23:43:36.204Z,13.90
2022-12-25T23:46:39.700Z,16.27
2022-12-25T23:49:42.239Z,11.23
2022-12-25T23:52:45.144Z,15.93
2022-12-25T23:55:55.070Z,14.45
2022-12-25T23:58:58.198Z,15.70
